Fleet, Virginia
Current Conditions -  °F | °C
As of 8:59 AM on Friday 28 Nov 2014 (Local Time) from KNGU Reporting Station
Few Clouds Few Clouds  
Wind Chill: 32°   Ceiling: Unl
Heat Index: 41°   Visibility: 10mi
Dew Point: 22°   Wind: 18mph
Humidity: 47%   Direction: 330°NNW
Pressure: 30.33"   Gusts: 28mph
Location:  36.9343°N, 76.284°W
Report Text: KNGU 281359Z 33016G24KT 10SM FEW030 05/M06 A3033 RMK AO2 SLP269 T00501056
Loading
Personal Weather Stations






























Interactive Weather Map New forecast layout! Learn more

10-Day Weather Forecast

Advertisements
Track Severe Weather on mobile